Terminal Aerodrome Forecast
Issued by NWS

Current Version | Previous Version | Text Only | Print | Product List | Glossary Off
Versions: 1 2 3 4 5 6 7 8 9 10 11 12 13 14 15 16 17 18 19 20 21

000
FTUS41 KRLX 311155
TAFCKB
TAF
KCKB 311155Z 3112/0112 00000KT 6SM BR SKC
     FM311300 00000KT P6SM SKC
     FM311600 26006KT P6SM SKC
     FM010600 21004KT 6SM BR SCT250
     FM011000 21004KT 6SM BR SCT060=

USA.gov is the U.S. government's official web portal to all federal, state and local government web resources and services.